Time;durP1;ratioP1;P1;durP2;ratioP2;P2;SDS_P1;SDS_P2;PMS_P1;PMS_P2;Temp;Humidity;BMP_temperature;BMP_pressure;BME280_temperature;BME280_humidity;BME280_pressure;Samples;Min_cycle;Max_cycle;Signal;HPM_P1;HPM_P2
2022/11/13 00:01:16;;;;;;;102.20;39.80;;;;;;;;;;5092745;28;20039;-54
2022/11/13 00:03:42;;;;;;;167.20;58.45;;;;;;;;;;5075272;28;20040;-53
2022/11/13 00:06:09;;;;;;;138.05;50.85;;;;;;;;;;5093242;28;20028;-56
2022/11/13 00:08:35;;;;;;;113.63;50.88;;;;;;;;;;5092018;28;20036;-56
2022/11/13 00:11:03;;;;;;;85.13;43.85;;;;;;;;;;5091115;28;20100;-56
2022/11/13 00:13:35;;;;;;;80.00;42.60;;;;;;;;;;5092656;28;20086;-56
2022/11/13 00:16:03;;;;;;;55.60;32.22;;;;;;;;;;5091480;28;20104;-56
2022/11/13 00:18:29;;;;;;;62.95;38.30;;;;;;;;;;5093719;28;20028;-56
2022/11/13 00:20:56;;;;;;;53.38;34.75;;;;;;;;;;5095816;28;20027;-56
2022/11/13 00:23:22;;;;;;;55.85;33.45;;;;;;;;;;5098347;28;20043;-56
2022/11/13 00:25:48;;;;;;;40.47;25.73;;;;;;;;;;5074282;28;20063;-56
2022/11/13 00:28:14;;;;;;;58.17;34.47;;;;;;;;;;5091533;28;20072;-57
2022/11/13 00:30:43;;;;;;;52.90;32.42;;;;;;;;;;5099166;28;20036;-57
2022/11/13 00:33:09;;;;;;;64.00;37.42;;;;;;;;;;5092783;28;20427;-56
2022/11/13 00:35:35;;;;;;;39.28;28.92;;;;;;;;;;5074416;28;20035;-56
2022/11/13 00:38:01;;;;;;;42.20;29.30;;;;;;;;;;5091827;28;20115;-56
2022/11/13 00:40:27;;;;;;;41.28;29.92;;;;;;;;;;5100718;28;20032;-54
2022/11/13 00:42:53;;;;;;;59.05;37.80;;;;;;;;;;5091894;28;20035;-56
2022/11/13 00:45:19;;;;;;;77.70;43.60;;;;;;;;;;5092152;28;20036;-55
2022/11/13 00:47:45;;;;;;;52.80;34.60;;;;;;;;;;5090252;28;20501;-56
2022/11/13 00:50:11;;;;;;;49.78;35.08;;;;;;;;;;5074158;28;20044;-56
2022/11/13 00:52:37;;;;;;;77.25;41.60;;;;;;;;;;5092418;28;20031;-56
2022/11/13 00:55:03;;;;;;;69.53;39.75;;;;;;;;;;5091798;28;20507;-57
2022/11/13 00:57:52;;;;;;;70.25;39.47;;;;;;;;;;5113471;22;20439;-88
2022/11/13 01:00:43;;;;;;;58.38;36.75;;;;;;;;;;5106489;28;20052;-86
2022/11/13 01:03:51;;;;;;;46.30;32.47;;;;;;;;;;5078908;28;20048;-87
2022/11/13 01:09:56;;;;;;;71.63;40.88;;;;;;;;;;5063787;28;20051;-88
2022/11/13 01:16:35;;;;;;;69.05;38.90;;;;;;;;;;5093542;28;20075;-87
2022/11/13 01:20:09;;;;;;;;;;;;;;;;;;;;;
2022/11/13 01:22:43;;;;;;;;;;;;;;;;;;;;;
2022/11/13 01:25:51;;;;;;;61.58;37.35;;;;;;;;;;5097394;28;19974;-88
2022/11/13 01:31:56;;;;;;;56.80;33.95;;;;;;;;;;5052369;28;20864;-87
2022/11/13 01:35:06;;;;;;;;;;;;;;;;;;;;;
2022/11/13 01:38:30;;;;;;;;;;;;;;;;;;;;;
2022/11/13 01:41:29;;;;;;;;;;;;;;;;;;;;;
2022/11/13 01:47:23;;;;;;;;;;;;;;;;;;;;;
2022/11/13 01:50:01;;;;;;;48.80;32.88;;;;;;;;;;5083369;28;20052;-87
2022/11/13 01:52:58;;;;;;;54.42;35.10;;;;;;;;;;5030436;28;20041;-88
2022/11/13 01:55:56;;;;;;;;;;;;;;;;;;;;;
2022/11/13 01:58:23;;;;;;;64.53;39.75;;;;;;;;;;5048879;22;20054;-51
2022/11/13 02:00:49;;;;;;;59.33;38.10;;;;;;;;;;5088049;28;20043;-54
2022/11/13 02:03:15;;;;;;;93.03;50.00;;;;;;;;;;5087213;28;20085;-52
2022/11/13 02:05:41;;;;;;;54.58;35.55;;;;;;;;;;5089722;28;20035;-54
2022/11/13 02:08:07;;;;;;;51.95;32.75;;;;;;;;;;5097820;28;20040;-52
2022/11/13 02:10:33;;;;;;;39.10;27.48;;;;;;;;;;5100418;28;20043;-50
2022/11/13 02:12:59;;;;;;;62.80;37.97;;;;;;;;;;5097197;28;20097;-50
2022/11/13 02:15:26;;;;;;;95.65;44.65;;;;;;;;;;5081209;28;20050;-50
2022/11/13 02:17:55;;;;;;;54.92;33.80;;;;;;;;;;5088565;28;20032;-53
2022/11/13 02:20:41;;;;;;;72.03;40.60;;;;;;;;;;5107595;28;20039;-50
2022/11/13 02:23:29;;;;;;;55.60;34.13;;;;;;;;;;5093216;28;20047;-54
2022/11/13 02:25:55;;;;;;;56.17;34.40;;;;;;;;;;5090953;28;20141;-53
2022/11/13 02:28:21;;;;;;;55.53;35.25;;;;;;;;;;5103125;28;20044;-50
2022/11/13 02:30:50;;;;;;;59.83;37.60;;;;;;;;;;5099149;28;20047;-54
2022/11/13 02:33:20;;;;;;;58.13;36.38;;;;;;;;;;5097944;28;20047;-53
2022/11/13 02:35:46;;;;;;;48.47;33.15;;;;;;;;;;5109165;28;20039;-54
2022/11/13 02:38:12;;;;;;;54.28;35.30;;;;;;;;;;5097766;28;20516;-54
2022/11/13 02:40:38;;;;;;;55.67;37.03;;;;;;;;;;5094874;28;20040;-50
2022/11/13 02:43:04;;;;;;;78.13;44.75;;;;;;;;;;5103424;28;20518;-53
2022/11/13 02:45:30;;;;;;;94.30;47.25;;;;;;;;;;5102312;28;20494;-52
2022/11/13 02:47:58;;;;;;;58.17;35.53;;;;;;;;;;5106167;28;20032;-51
2022/11/13 02:50:25;;;;;;;52.28;34.47;;;;;;;;;;5088974;28;20442;-53
2022/11/13 02:52:51;;;;;;;57.97;35.97;;;;;;;;;;5110480;28;20047;-51
2022/11/13 02:55:17;;;;;;;103.25;50.85;;;;;;;;;;5104037;28;20056;-54
2022/11/13 02:57:43;;;;;;;79.15;43.60;;;;;;;;;;5105884;28;20504;-51
2022/11/13 03:00:10;;;;;;;49.28;33.50;;;;;;;;;;5113491;28;20559;-54
2022/11/13 03:02:37;;;;;;;51.40;33.03;;;;;;;;;;5112753;28;20044;-53
2022/11/13 03:05:03;;;;;;;87.60;49.10;;;;;;;;;;5103322;28;20089;-51
2022/11/13 03:07:30;;;;;;;55.25;36.22;;;;;;;;;;5098815;28;20039;-53
2022/11/13 03:09:56;;;;;;;54.03;36.35;;;;;;;;;;5081926;28;20436;-54
2022/11/13 03:12:22;;;;;;;103.88;50.25;;;;;;;;;;5099414;28;20575;-54
2022/11/13 03:14:48;;;;;;;54.92;32.72;;;;;;;;;;5102498;28;20421;-52
2022/11/13 03:17:14;;;;;;;47.83;32.35;;;;;;;;;;5104255;28;20100;-50
2022/11/13 03:19:40;;;;;;;52.33;34.08;;;;;;;;;;5098161;28;20055;-53
2022/11/13 03:22:06;;;;;;;58.90;34.40;;;;;;;;;;5102775;28;20538;-49
2022/11/13 03:24:32;;;;;;;47.10;33.47;;;;;;;;;;5105140;28;20032;-51
2022/11/13 03:26:58;;;;;;;48.78;33.83;;;;;;;;;;5099634;28;20090;-53
2022/11/13 03:29:24;;;;;;;44.85;29.42;;;;;;;;;;5098358;28;20044;-54
2022/11/13 03:31:50;;;;;;;51.20;34.55;;;;;;;;;;5097524;28;20042;-51
2022/11/13 03:34:16;;;;;;;62.97;37.47;;;;;;;;;;5105551;28;20036;-54
2022/11/13 03:36:43;;;;;;;62.15;38.33;;;;;;;;;;5097343;28;20044;-54
2022/11/13 03:39:09;;;;;;;59.85;35.58;;;;;;;;;;5093763;28;20059;-53
2022/11/13 03:41:35;;;;;;;73.30;40.13;;;;;;;;;;5097510;28;20413;-50
2022/11/13 03:44:01;;;;;;;52.35;33.00;;;;;;;;;;5100047;28;20122;-54
2022/11/13 03:46:27;;;;;;;57.45;35.08;;;;;;;;;;5098117;28;20028;-52
2022/11/13 03:48:53;;;;;;;47.97;32.55;;;;;;;;;;5104476;28;20477;-51
2022/11/13 03:51:19;;;;;;;52.75;34.20;;;;;;;;;;5095638;28;20031;-53
2022/11/13 03:53:45;;;;;;;54.15;34.95;;;;;;;;;;5107613;28;20119;-53
2022/11/13 03:56:11;;;;;;;55.95;35.22;;;;;;;;;;5085966;28;20038;-51
2022/11/13 03:58:37;;;;;;;55.30;35.10;;;;;;;;;;5102240;28;20043;-52
2022/11/13 04:01:03;;;;;;;62.35;36.90;;;;;;;;;;5106701;28;20035;-52
2022/11/13 04:03:29;;;;;;;44.05;31.27;;;;;;;;;;5105223;28;20042;-53
2022/11/13 04:05:55;;;;;;;58.55;35.72;;;;;;;;;;5091404;28;20055;-53
2022/11/13 04:08:21;;;;;;;47.95;30.95;;;;;;;;;;5097508;28;20058;-52
2022/11/13 04:10:47;;;;;;;53.28;35.05;;;;;;;;;;5101723;28;20057;-54
2022/11/13 04:13:14;;;;;;;53.25;34.50;;;;;;;;;;5094584;28;20169;-53
2022/11/13 04:15:40;;;;;;;50.78;33.50;;;;;;;;;;5100228;28;20489;-50
2022/11/13 04:18:06;;;;;;;39.55;25.92;;;;;;;;;;5106106;28;20054;-51
2022/11/13 04:20:32;;;;;;;53.35;34.53;;;;;;;;;;5100593;28;20031;-50
2022/11/13 04:22:58;;;;;;;51.65;33.47;;;;;;;;;;5099260;28;20032;-54
2022/11/13 04:25:26;;;;;;;57.53;35.85;;;;;;;;;;5110746;28;20035;-53
2022/11/13 04:27:52;;;;;;;75.90;40.75;;;;;;;;;;5098611;28;20040;-54
2022/11/13 04:30:19;;;;;;;64.75;38.95;;;;;;;;;;5100335;28;20114;-54
2022/11/13 04:32:45;;;;;;;40.50;29.75;;;;;;;;;;5099344;28;20513;-53
2022/11/13 04:35:11;;;;;;;51.33;33.13;;;;;;;;;;5100677;28;20091;-54
2022/11/13 04:37:37;;;;;;;82.00;47.28;;;;;;;;;;5098931;28;20071;-52
2022/11/13 04:40:04;;;;;;;45.40;30.33;;;;;;;;;;5081386;28;20051;-54
2022/11/13 04:42:48;;;;;;;62.08;39.55;;;;;;;;;;5110276;28;20542;-52
2022/11/13 04:45:18;;;;;;;59.65;37.38;;;;;;;;;;5100543;28;20089;-51
2022/11/13 04:47:44;;;;;;;67.20;40.92;;;;;;;;;;5095613;28;20135;-50
2022/11/13 04:50:11;;;;;;;51.88;32.95;;;;;;;;;;5098330;28;20035;-54
2022/11/13 04:52:37;;;;;;;50.75;33.85;;;;;;;;;;5102326;28;20071;-52
2022/11/13 04:55:03;;;;;;;57.10;34.17;;;;;;;;;;5101938;28;20092;-52
2022/11/13 04:57:29;;;;;;;60.78;36.85;;;;;;;;;;5104507;28;20040;-54
2022/11/13 04:59:55;;;;;;;77.10;44.30;;;;;;;;;;5102079;28;20035;-54
2022/11/13 05:02:22;;;;;;;67.63;40.72;;;;;;;;;;5105008;28;20035;-52
2022/11/13 05:04:48;;;;;;;56.90;33.30;;;;;;;;;;5080806;28;20151;-52
2022/11/13 05:07:14;;;;;;;49.15;31.25;;;;;;;;;;5098331;28;20039;-51
2022/11/13 05:09:40;;;;;;;110.93;54.00;;;;;;;;;;5079162;28;20059;-51
2022/11/13 05:12:07;;;;;;;57.92;37.00;;;;;;;;;;5104862;28;20084;-51
2022/11/13 05:14:40;;;;;;;73.97;41.40;;;;;;;;;;5084673;28;20550;-54
2022/11/13 05:17:09;;;;;;;105.65;49.20;;;;;;;;;;5101314;28;20051;-54
2022/11/13 05:19:36;;;;;;;59.72;36.15;;;;;;;;;;5096256;28;20040;-53
2022/11/13 05:22:02;;;;;;;93.47;48.25;;;;;;;;;;5099088;28;20541;-54
2022/11/13 05:24:28;;;;;;;101.03;47.67;;;;;;;;;;5096146;28;20035;-50
2022/11/13 05:26:54;;;;;;;74.35;44.70;;;;;;;;;;5097075;28;20040;-51
2022/11/13 05:29:21;;;;;;;62.50;38.40;;;;;;;;;;5078572;28;20371;-53
2022/11/13 05:31:47;;;;;;;79.93;44.75;;;;;;;;;;5094040;28;20055;-50
2022/11/13 05:34:13;;;;;;;69.30;39.25;;;;;;;;;;5103295;28;20036;-51
2022/11/13 05:36:40;;;;;;;93.82;47.28;;;;;;;;;;5097116;28;20111;-54
2022/11/13 05:39:06;;;;;;;67.45;40.78;;;;;;;;;;5111059;28;20039;-53
2022/11/13 05:41:32;;;;;;;63.67;37.70;;;;;;;;;;5077282;28;20055;-54
2022/11/13 05:43:58;;;;;;;80.45;44.40;;;;;;;;;;5101981;28;20040;-53
2022/11/13 05:46:26;;;;;;;63.58;37.53;;;;;;;;;;5095614;28;20043;-50
2022/11/13 05:48:53;;;;;;;100.47;45.80;;;;;;;;;;5094495;28;20040;-54
2022/11/13 05:51:20;;;;;;;76.60;42.20;;;;;;;;;;5103050;28;20038;-53
2022/11/13 05:53:47;;;;;;;69.25;38.70;;;;;;;;;;5093612;28;20171;-51
2022/11/13 05:56:17;;;;;;;65.03;40.38;;;;;;;;;;5102800;28;20032;-54
2022/11/13 05:58:44;;;;;;;68.70;35.85;;;;;;;;;;5098841;28;20035;-50
2022/11/13 06:01:10;;;;;;;59.90;38.95;;;;;;;;;;5104817;28;20031;-50
2022/11/13 06:03:36;;;;;;;71.10;40.28;;;;;;;;;;5098430;28;20047;-52
2022/11/13 06:06:03;;;;;;;54.88;35.20;;;;;;;;;;5105598;28;20058;-50
2022/11/13 06:08:29;;;;;;;98.53;46.30;;;;;;;;;;5096131;28;20448;-52
2022/11/13 06:10:59;;;;;;;78.10;42.95;;;;;;;;;;5097242;28;20036;-51
2022/11/13 06:13:25;;;;;;;80.20;45.00;;;;;;;;;;5094600;28;20063;-52
2022/11/13 06:15:51;;;;;;;74.60;42.13;;;;;;;;;;5102404;28;20067;-49
2022/11/13 06:18:22;;;;;;;88.32;43.45;;;;;;;;;;5080969;28;20043;-52
2022/11/13 06:20:48;;;;;;;142.45;56.50;;;;;;;;;;5096032;28;20058;-54
2022/11/13 06:23:14;;;;;;;59.75;35.88;;;;;;;;;;5097904;28;20417;-52
2022/11/13 06:25:40;;;;;;;150.52;60.55;;;;;;;;;;5095873;28;20043;-50
2022/11/13 06:28:05;;;;;;;77.85;42.00;;;;;;;;;;5101674;28;20048;-51
2022/11/13 06:30:31;;;;;;;63.30;35.78;;;;;;;;;;5096774;28;20045;-53
2022/11/13 06:32:59;;;;;;;84.07;43.15;;;;;;;;;;5109753;28;20179;-51
2022/11/13 06:35:25;;;;;;;73.35;39.53;;;;;;;;;;5110686;28;20051;-52
2022/11/13 06:37:52;;;;;;;65.60;39.35;;;;;;;;;;5094475;28;20036;-54
2022/11/13 06:40:18;;;;;;;53.00;34.83;;;;;;;;;;5096590;28;20086;-53
2022/11/13 06:42:44;;;;;;;101.30;47.80;;;;;;;;;;5093834;28;20043;-53
2022/11/13 06:45:10;;;;;;;92.35;47.38;;;;;;;;;;5102913;28;20032;-54
2022/11/13 06:47:36;;;;;;;77.93;41.90;;;;;;;;;;5076840;28;20054;-50
2022/11/13 06:50:02;;;;;;;51.60;33.65;;;;;;;;;;5081821;28;20036;-53
2022/11/13 06:52:28;;;;;;;71.53;39.33;;;;;;;;;;5104487;28;20382;-54
2022/11/13 06:54:54;;;;;;;68.88;35.45;;;;;;;;;;5105963;28;20252;-53
2022/11/13 06:57:20;;;;;;;41.75;28.88;;;;;;;;;;5097131;28;20115;-54
2022/11/13 06:59:46;;;;;;;66.55;37.15;;;;;;;;;;5088421;22;20040;-59
2022/11/13 07:02:13;;;;;;;52.10;33.75;;;;;;;;;;5037878;28;20513;-59
2022/11/13 07:04:38;;;;;;;50.67;31.42;;;;;;;;;;5033070;28;20042;-60
2022/11/13 07:07:05;;;;;;;40.42;29.20;;;;;;;;;;5015321;28;20067;-59
2022/11/13 07:09:31;;;;;;;50.80;31.73;;;;;;;;;;5049694;28;20058;-60
2022/11/13 07:11:57;;;;;;;93.40;45.45;;;;;;;;;;5031665;28;20442;-60
2022/11/13 07:14:23;;;;;;;52.13;32.00;;;;;;;;;;5049756;28;20055;-60
2022/11/13 07:16:49;;;;;;;46.95;30.92;;;;;;;;;;5040797;28;20041;-60
2022/11/13 07:19:15;;;;;;;53.63;32.85;;;;;;;;;;5031320;28;20414;-60
2022/11/13 07:21:41;;;;;;;47.75;30.83;;;;;;;;;;5049047;28;20047;-60
2022/11/13 07:24:08;;;;;;;54.47;33.50;;;;;;;;;;5049429;28;20033;-61
2022/11/13 07:26:34;;;;;;;71.93;37.97;;;;;;;;;;5049239;28;20062;-60
2022/11/13 07:29:00;;;;;;;48.97;31.48;;;;;;;;;;5048613;28;20259;-60
2022/11/13 07:31:26;;;;;;;41.17;29.10;;;;;;;;;;5049198;28;20033;-60
2022/11/13 07:33:52;;;;;;;45.80;29.65;;;;;;;;;;5048663;28;20040;-60
2022/11/13 07:36:18;;;;;;;45.15;29.98;;;;;;;;;;5049190;28;20418;-60
2022/11/13 07:38:44;;;;;;;45.75;29.58;;;;;;;;;;5048353;28;20359;-61
2022/11/13 07:41:10;;;;;;;48.28;30.58;;;;;;;;;;5049278;28;20443;-60
2022/11/13 07:43:36;;;;;;;53.60;32.25;;;;;;;;;;5047951;28;20045;-60
2022/11/13 07:46:02;;;;;;;41.10;27.75;;;;;;;;;;5051064;28;20489;-60
2022/11/13 07:48:28;;;;;;;58.90;33.50;;;;;;;;;;5050579;28;20563;-60
2022/11/13 07:50:55;;;;;;;55.72;33.50;;;;;;;;;;5050718;28;20033;-60
2022/11/13 07:53:22;;;;;;;36.05;26.75;;;;;;;;;;5051550;28;20072;-60
2022/11/13 07:55:48;;;;;;;43.35;29.02;;;;;;;;;;5032053;28;20057;-60
2022/11/13 07:58:14;;;;;;;48.03;32.60;;;;;;;;;;5051694;28;20494;-58
2022/11/13 08:00:40;;;;;;;47.25;30.50;;;;;;;;;;5041511;28;20044;-60
2022/11/13 08:03:07;;;;;;;48.58;30.33;;;;;;;;;;5042856;28;20041;-60
2022/11/13 08:05:33;;;;;;;53.45;33.25;;;;;;;;;;5047781;28;20047;-60
2022/11/13 08:07:59;;;;;;;46.78;31.95;;;;;;;;;;5050751;28;20033;-60
2022/11/13 08:10:25;;;;;;;50.90;31.15;;;;;;;;;;5034878;28;20034;-60
2022/11/13 08:12:57;;;;;;;41.03;27.30;;;;;;;;;;5035504;28;21610;-60
2022/11/13 08:15:23;;;;;;;47.25;29.90;;;;;;;;;;5033471;28;20038;-60
2022/11/13 08:18:00;;;;;;;35.33;25.58;;;;;;;;;;5033474;28;20065;-60
2022/11/13 08:20:26;;;;;;;42.92;29.63;;;;;;;;;;5036958;28;20037;-60
2022/11/13 08:22:55;;;;;;;36.08;25.67;;;;;;;;;;5036303;28;20509;-60
2022/11/13 08:25:21;;;;;;;37.33;25.40;;;;;;;;;;5038627;28;20033;-60
2022/11/13 08:27:47;;;;;;;42.53;27.02;;;;;;;;;;5018387;28;20041;-60
2022/11/13 08:30:14;;;;;;;35.03;26.05;;;;;;;;;;5035852;28;20029;-60
2022/11/13 08:32:40;;;;;;;34.28;24.67;;;;;;;;;;5052114;28;20047;-60
2022/11/13 08:35:06;;;;;;;36.38;25.48;;;;;;;;;;5051478;28;20498;-60
2022/11/13 08:37:33;;;;;;;35.03;23.75;;;;;;;;;;5050351;28;20073;-60
2022/11/13 08:39:59;;;;;;;38.90;25.15;;;;;;;;;;5052289;28;20041;-60
2022/11/13 08:42:25;;;;;;;39.88;26.50;;;;;;;;;;5052262;28;20531;-60
2022/11/13 08:44:51;;;;;;;42.80;28.33;;;;;;;;;;5032128;28;20373;-60
2022/11/13 08:47:17;;;;;;;37.10;26.77;;;;;;;;;;5032565;28;20036;-60
2022/11/13 08:49:43;;;;;;;33.00;23.98;;;;;;;;;;5050389;28;20048;-60
2022/11/13 08:52:09;;;;;;;40.38;28.50;;;;;;;;;;5033927;28;20514;-60
2022/11/13 08:54:35;;;;;;;36.80;25.88;;;;;;;;;;5051462;28;20090;-60
2022/11/13 08:57:01;;;;;;;30.95;23.55;;;;;;;;;;5049317;28;20123;-60
2022/11/13 08:59:27;;;;;;;33.28;24.20;;;;;;;;;;5051333;28;20483;-60
2022/11/13 09:01:58;;;;;;;36.22;24.98;;;;;;;;;;5043137;28;20041;-59
2022/11/13 09:04:24;;;;;;;32.20;23.90;;;;;;;;;;5033854;28;20069;-59
2022/11/13 09:06:51;;;;;;;42.70;27.95;;;;;;;;;;5052438;28;20679;-59
2022/11/13 09:09:17;;;;;;;34.85;24.48;;;;;;;;;;5047266;28;20033;-59
2022/11/13 09:11:43;;;;;;;33.35;23.95;;;;;;;;;;5049924;28;20045;-59
2022/11/13 09:14:09;;;;;;;62.63;51.67;;;;;;;;;;5051064;28;20049;-59
2022/11/13 09:16:35;;;;;;;46.15;35.45;;;;;;;;;;5044435;28;20065;-58
2022/11/13 09:19:01;;;;;;;39.97;31.65;;;;;;;;;;5035194;28;20033;-60
2022/11/13 09:21:27;;;;;;;33.63;24.15;;;;;;;;;;5032682;28;20460;-60
2022/11/13 09:23:53;;;;;;;47.22;31.10;;;;;;;;;;5042066;28;20112;-60
2022/11/13 09:26:19;;;;;;;28.35;21.38;;;;;;;;;;5049942;28;20068;-60
2022/11/13 09:28:45;;;;;;;29.75;20.02;;;;;;;;;;5042177;28;20037;-59
2022/11/13 09:31:11;;;;;;;30.42;23.38;;;;;;;;;;5034349;28;20084;-60
2022/11/13 09:33:37;;;;;;;26.65;21.00;;;;;;;;;;5036087;28;20043;-59
2022/11/13 09:36:09;;;;;;;32.38;22.65;;;;;;;;;;5029094;28;20033;-60
2022/11/13 09:38:35;;;;;;;32.20;23.00;;;;;;;;;;5028686;28;20037;-59
2022/11/13 09:41:08;;;;;;;27.27;21.92;;;;;;;;;;5034944;28;20434;-59
2022/11/13 09:43:38;;;;;;;38.13;26.17;;;;;;;;;;5009530;28;20054;-60
2022/11/13 09:46:11;;;;;;;30.92;23.50;;;;;;;;;;5033651;28;20052;-59
2022/11/13 09:48:42;;;;;;;26.55;21.13;;;;;;;;;;5033497;28;20052;-60
2022/11/13 09:51:16;;;;;;;32.10;23.60;;;;;;;;;;5040078;28;20041;-59
2022/11/13 09:53:42;;;;;;;27.27;21.38;;;;;;;;;;5035191;28;20473;-60
2022/11/13 09:56:08;;;;;;;26.60;22.52;;;;;;;;;;5031322;28;20032;-60
2022/11/13 09:58:43;;;;;;;31.15;23.67;;;;;;;;;;5031380;28;20164;-60
2022/11/13 10:01:15;;;;;;;23.48;19.25;;;;;;;;;;5031410;28;20048;-60
2022/11/13 10:03:44;;;;;;;25.48;18.20;;;;;;;;;;5031179;28;20065;-60
2022/11/13 10:06:36;;;;;;;23.33;19.30;;;;;;;;;;5019191;28;20143;-60
2022/11/13 10:09:11;;;;;;;23.45;18.95;;;;;;;;;;5034558;28;20120;-60
2022/11/13 10:11:39;;;;;;;22.33;19.38;;;;;;;;;;5033778;28;20044;-60
2022/11/13 10:14:17;;;;;;;23.90;18.30;;;;;;;;;;5030700;28;20049;-60
2022/11/13 10:16:45;;;;;;;24.52;18.15;;;;;;;;;;5037396;28;20094;-59
2022/11/13 10:19:14;;;;;;;17.80;14.20;;;;;;;;;;5034460;28;20068;-60
2022/11/13 10:21:46;;;;;;;20.77;14.48;;;;;;;;;;5033922;28;20045;-60
2022/11/13 10:24:16;;;;;;;19.58;15.50;;;;;;;;;;5033807;28;20065;-59
2022/11/13 10:26:42;;;;;;;21.70;18.40;;;;;;;;;;5036042;28;20043;-60
2022/11/13 10:29:14;;;;;;;16.00;13.05;;;;;;;;;;5035575;28;20116;-60
2022/11/13 10:31:44;;;;;;;16.25;13.63;;;;;;;;;;5035331;28;20581;-59
2022/11/13 10:34:11;;;;;;;17.75;14.77;;;;;;;;;;5033405;28;20037;-60
2022/11/13 10:36:46;;;;;;;15.02;11.95;;;;;;;;;;5029857;28;20113;-60
2022/11/13 10:39:12;;;;;;;16.45;13.60;;;;;;;;;;5026170;28;20041;-60
2022/11/13 10:41:49;;;;;;;15.38;12.75;;;;;;;;;;5047741;28;20047;-59
2022/11/13 10:44:24;;;;;;;14.85;12.70;;;;;;;;;;5032261;28;20040;-59
2022/11/13 10:46:50;;;;;;;15.43;11.45;;;;;;;;;;5041606;28;20513;-59
2022/11/13 10:49:21;;;;;;;16.80;11.98;;;;;;;;;;5038168;28;20043;-60
2022/11/13 10:51:57;;;;;;;21.58;12.82;;;;;;;;;;5037816;28;20045;-58
2022/11/13 10:54:24;;;;;;;15.55;12.40;;;;;;;;;;5046006;28;20094;-61
2022/11/13 10:56:58;;;;;;;15.30;12.35;;;;;;;;;;5038371;28;20045;-60
2022/11/13 10:59:25;;;;;;;14.38;11.38;;;;;;;;;;5032899;28;20048;-60
2022/11/13 11:01:51;;;;;;;12.90;10.00;;;;;;;;;;5031956;28;20086;-59
2022/11/13 11:04:20;;;;;;;13.20;10.73;;;;;;;;;;5030986;28;20037;-60
2022/11/13 11:06:46;;;;;;;14.05;10.10;;;;;;;;;;5033025;28;20510;-61
2022/11/13 11:09:29;;;;;;;14.27;9.95;;;;;;;;;;5030699;28;20437;-61
2022/11/13 11:12:14;;;;;;;12.23;8.90;;;;;;;;;;5037195;28;20120;-59
2022/11/13 11:14:46;;;;;;;14.10;10.98;;;;;;;;;;5032082;28;20101;-60
2022/11/13 11:17:13;;;;;;;11.63;9.05;;;;;;;;;;5026321;28;20046;-60
2022/11/13 11:19:40;;;;;;;12.50;9.32;;;;;;;;;;5027309;28;20056;-60
2022/11/13 11:22:11;;;;;;;11.07;7.97;;;;;;;;;;5019359;28;20610;-60
2022/11/13 11:24:39;;;;;;;13.18;8.63;;;;;;;;;;5034699;28;20033;-60
2022/11/13 11:27:12;;;;;;;12.38;9.13;;;;;;;;;;5034926;28;20039;-60
2022/11/13 11:29:42;;;;;;;10.60;7.57;;;;;;;;;;5033432;28;20075;-60
2022/11/13 11:32:11;;;;;;;11.32;6.95;;;;;;;;;;5034577;28;20041;-60
2022/11/13 11:35:16;;;;;;;9.13;7.00;;;;;;;;;;5031429;28;20037;-60
2022/11/13 11:37:47;;;;;;;9.07;6.85;;;;;;;;;;4929722;29;20058;-59
2022/11/13 11:40:31;;;;;;;13.00;8.95;;;;;;;;;;4931335;29;20433;-59
2022/11/13 11:43:07;;;;;;;11.48;8.48;;;;;;;;;;4977828;28;20053;-59
2022/11/13 11:45:38;;;;;;;11.02;7.45;;;;;;;;;;5033340;28;20048;-59
2022/11/13 11:48:08;;;;;;;10.07;7.55;;;;;;;;;;5014074;28;20076;-59
2022/11/13 11:50:45;;;;;;;12.70;7.60;;;;;;;;;;5015950;28;20049;-59
2022/11/13 11:53:23;;;;;;;9.93;8.10;;;;;;;;;;5015779;28;20045;-59
2022/11/13 11:56:01;;;;;;;10.57;7.25;;;;;;;;;;5034625;28;20473;-59
2022/11/13 11:58:46;;;;;;;10.15;7.00;;;;;;;;;;5031293;28;20065;-59
2022/11/13 12:01:34;;;;;;;10.57;8.32;;;;;;;;;;5035485;28;20029;-59
2022/11/13 12:04:08;;;;;;;11.60;8.18;;;;;;;;;;5039659;28;20533;-59
2022/11/13 12:06:37;;;;;;;10.65;8.45;;;;;;;;;;5043398;28;20033;-59
2022/11/13 12:09:18;;;;;;;11.70;8.45;;;;;;;;;;5048837;28;20033;-59
2022/11/13 12:11:51;;;;;;;13.95;8.30;;;;;;;;;;5050337;28;20120;-59
2022/11/13 12:14:29;;;;;;;14.32;9.52;;;;;;;;;;5045983;28;20029;-59
2022/11/13 12:17:19;;;;;;;13.40;9.77;;;;;;;;;;5045522;28;20084;-59
2022/11/13 12:19:58;;;;;;;12.98;11.40;;;;;;;;;;5038051;28;20052;-59
2022/11/13 12:22:42;;;;;;;13.85;10.68;;;15.80;99.90;;;;;;5048922;28;20059;-59
2022/11/13 12:25:34;;;;;;;14.13;9.50;;;17.70;99.90;;;;;;5045897;28;20040;-59
2022/11/13 12:28:32;;;;;;;11.93;8.20;;;19.50;99.90;;;;;;5049413;28;20041;-58
2022/11/13 12:31:19;;;;;;;10.63;7.05;;;20.80;99.90;;;;;;5043910;28;20226;-59
2022/11/13 12:34:05;;;;;;;9.55;6.93;;;23.00;99.90;;;;;;5049846;28;20041;-58
2022/11/13 12:36:31;;;;;;;8.65;6.80;;;23.90;99.90;;;;;;5048985;28;20041;-58
2022/11/13 12:39:29;;;;;;;9.25;6.53;;;24.80;99.90;;;;;;5047478;28;20479;-58
2022/11/13 12:42:01;;;;;;;8.13;6.10;;;26.10;99.90;;;;;;5044071;28;20033;-58
2022/11/13 12:44:28;;;;;;;8.07;5.78;;;27.60;99.90;;;;;;5046768;28;20036;-59
2022/11/13 12:46:56;;;;;;;8.45;5.68;;;28.50;99.90;;;;;;5045568;28;20061;-59
2022/11/13 12:49:22;;;;;;;8.15;5.10;;;29.50;99.90;;;;;;5048294;28;20041;-59
2022/11/13 12:51:55;;;;;;;7.13;4.78;;;;;;;;;;5050810;28;20056;-59
2022/11/13 12:54:35;;;;;;;12.93;4.80;;;31.80;99.90;;;;;;5030589;28;20047;-59
2022/11/13 12:57:18;;;;;;;7.30;4.40;;;32.20;99.90;;;;;;5029956;28;20094;-60
2022/11/13 12:59:53;;;;;;;7.28;4.68;;;33.10;99.90;;;;;;5086722;22;20064;-54
2022/11/13 13:02:54;;;;;;;7.88;5.90;;;33.70;99.90;;;;;;5059342;28;20047;-52
2022/11/13 13:05:29;;;;;;;6.80;4.88;;;33.90;99.90;;;;;;5064637;28;20055;-57
2022/11/13 13:08:03;;;;;;;7.85;4.40;;;34.70;99.90;;;;;;5047094;28;20506;-56
2022/11/13 13:11:02;;;;;;;7.10;4.32;;;35.30;99.90;;;;;;5048307;28;20116;-56
2022/11/13 13:13:43;;;;;;;6.90;4.43;;;35.00;99.90;;;;;;5040180;28;20069;-53
2022/11/13 13:16:10;;;;;;;6.50;4.10;;;36.00;99.90;;;;;;5039855;28;20040;-53
2022/11/13 13:18:37;;;;;;;7.10;4.47;;;35.70;99.90;;;;;;5050916;28;20115;-52
2022/11/13 13:21:12;;;;;;;7.43;4.40;;;35.30;99.90;;;;;;5038150;28;20045;-55
2022/11/13 13:23:39;;;;;;;6.53;4.28;;;36.60;99.90;;;;;;5041394;28;20483;-57
2022/11/13 13:26:17;;;;;;;6.63;4.40;;;35.30;99.90;;;;;;5047569;28;20036;-57
2022/11/13 13:29:07;;;;;;;7.63;4.70;;;35.40;99.90;;;;;;5045773;28;20438;-56
2022/11/13 13:32:10;;;;;;;8.02;4.32;;;36.90;99.90;;;;;;5046873;28;20036;-56
2022/11/13 13:35:04;;;;;;;5.93;4.03;;;37.30;99.90;;;;;;5006694;28;20470;-57
2022/11/13 13:38:03;;;;;;;5.90;4.10;;;37.00;99.90;;;;;;5048324;28;20041;-57
2022/11/13 13:40:53;;;;;;;6.18;3.90;;;37.30;99.90;;;;;;5048899;28;20041;-56
2022/11/13 13:43:46;;;;;;;6.35;3.67;;;35.00;99.90;;;;;;5034711;28;20389;-55
2022/11/13 13:46:20;;;;;;;6.20;4.10;;;32.80;99.90;;;;;;5045835;28;20128;-56
2022/11/13 13:48:48;;;;;;;6.70;4.28;;;32.10;99.90;;;;;;5047414;28;20091;-57
2022/11/13 13:51:42;;;;;;;7.88;4.25;;;31.10;99.90;;;;;;5046410;28;20722;-53
2022/11/13 13:54:08;;;;;;;;;;;29.50;99.90;;;;;;5044168;28;20199;-56
2022/11/13 13:56:39;;;;;;;6.82;4.63;;;28.40;99.90;;;;;;5048143;28;19978;-57
2022/11/13 13:59:17;;;;;;;7.40;5.28;;;27.40;99.90;;;;;;5045178;28;20041;-56
2022/11/13 14:01:57;;;;;;;8.77;4.78;;;26.60;99.90;;;;;;5040480;28;20095;-57
2022/11/13 14:04:24;;;;;;;7.18;5.10;;;25.90;99.90;;;;;;5041594;28;20119;-56
2022/11/13 14:06:58;;;;;;;8.38;4.95;;;25.20;99.90;;;;;;5042117;28;20040;-56
2022/11/13 14:09:26;;;;;;;7.65;5.47;;;24.60;99.90;;;;;;5043681;28;20033;-57
2022/11/13 14:12:04;;;;;;;13.88;10.93;;;23.60;99.90;;;;;;5037283;28;20123;-56
2022/11/13 14:14:30;;;;;;;10.55;7.80;;;22.90;99.90;;;;;;5041568;28;20392;-53
2022/11/13 14:16:59;;;;;;;8.10;5.65;;;22.20;99.90;;;;;;5045252;28;20044;-54
2022/11/13 14:19:25;;;;;;;6.95;5.13;;;22.30;99.90;;;;;;5043724;28;20122;-57
2022/11/13 14:21:58;;;;;;;7.07;4.97;;;21.60;99.90;;;;;;5049058;28;20507;-56
2022/11/13 14:24:33;;;;;;;8.10;5.45;;;20.50;99.90;;;;;;5036325;28;20114;-57
2022/11/13 14:27:02;;;;;;;9.82;5.60;;;20.40;99.90;;;;;;5039021;28;20043;-56
2022/11/13 14:29:43;;;;;;;9.05;6.13;;;20.50;99.90;;;;;;5042559;28;20044;-55
2022/11/13 14:32:24;;;;;;;9.52;5.75;;;19.90;99.90;;;;;;5047520;28;20494;-57
2022/11/13 14:34:54;;;;;;;7.88;5.32;;;20.30;99.90;;;;;;5049047;28;20513;-56
2022/11/13 14:37:31;;;;;;;9.93;6.40;;;19.60;99.90;;;;;;5043793;28;20037;-54
2022/11/13 14:40:00;;;;;;;8.82;6.07;;;19.20;99.90;;;;;;5039420;28;20499;-57
2022/11/13 14:42:36;;;;;;;8.90;6.40;;;18.90;99.90;;;;;;5037969;28;20037;-54
2022/11/13 14:45:26;;;;;;;8.43;6.32;;;21.20;99.90;;;;;;5039876;28;20037;-54